Terminal Aerodrome Forecast
Issued by NWS

Home | Current Version | Previous Version | Text Only | Print | Product List | Glossary On
Versions: 1 2 3 4 5 6 7 8 9 10 11 12 13 14 15 16 17 18 19 20 21 22 23 24 25 26 27 28 29 30 31 32 33 34 35 36 37 38 39
384
FTUS45 KSLC 271740
TAFEVW
TAF
KEVW 271740Z 2718/2818 17006KT 4SM -SHSN BKN030 OVC050
      TEMPO 2718/2720 1SM -SN BR FEW010 BKN025
     FM272000 27015G25KT P6SM VCSH SCT020 BKN050
     FM280300 24008KT P6SM SCT020 BKN060
     FM281600 23014G24KT P6SM SCT020 BKN060=

USA.gov is the U.S. government's official web portal to all federal, state and local government web resources and services.